createdAt,value
2017-12-29T00:01:12.185Z,9.68
2017-12-29T00:03:40.534Z,9.56
2017-12-29T00:06:09.291Z,9.57
2017-12-29T00:08:37.675Z,9.59
2017-12-29T00:11:06.126Z,9.04
2017-12-29T00:13:34.468Z,9.13
2017-12-29T00:16:04.427Z,8.84
2017-12-29T00:18:32.827Z,9.06
2017-12-29T00:21:01.205Z,9.27
2017-12-29T00:23:29.572Z,8.95
2017-12-29T00:25:57.909Z,8.98
2017-12-29T00:28:26.735Z,9.02
2017-12-29T00:30:55.145Z,8.80
2017-12-29T00:33:23.499Z,8.93
2017-12-29T00:35:51.882Z,8.94
2017-12-29T00:38:20.263Z,8.67
2017-12-29T00:40:48.649Z,8.52
2017-12-29T00:43:17.009Z,8.60
2017-12-29T00:45:45.405Z,8.44
2017-12-29T00:48:13.751Z,8.48
2017-12-29T00:50:42.091Z,8.16
2017-12-29T00:53:10.565Z,8.51
2017-12-29T00:55:38.910Z,8.53
2017-12-29T00:58:07.275Z,8.56
2017-12-29T01:00:35.671Z,8.52
2017-12-29T01:03:04.052Z,8.34
2017-12-29T01:05:32.403Z,8.40
2017-12-29T01:08:00.763Z,8.55
2017-12-29T01:10:29.132Z,8.48
2017-12-29T01:12:57.874Z,8.45
2017-12-29T01:15:26.257Z,8.55
2017-12-29T01:17:54.631Z,8.56
2017-12-29T01:20:22.972Z,8.63
2017-12-29T01:22:51.391Z,8.66
2017-12-29T01:25:19.756Z,8.60
2017-12-29T01:27:48.100Z,8.80
2017-12-29T01:30:16.464Z,8.37
2017-12-29T01:32:45.388Z,8.42
2017-12-29T01:35:13.727Z,8.52
2017-12-29T01:37:42.504Z,8.49
2017-12-29T01:40:10.852Z,8.64
2017-12-29T01:42:39.203Z,8.63
2017-12-29T01:45:07.580Z,8.85
2017-12-29T01:47:53.710Z,8.50
2017-12-29T01:50:22.084Z,8.45
2017-12-29T01:52:50.474Z,8.62
2017-12-29T01:55:19.075Z,8.67
2017-12-29T01:57:47.507Z,8.86
2017-12-29T02:00:16.116Z,8.98
2017-12-29T02:02:44.496Z,9.03
2017-12-29T02:05:12.886Z,8.96
2017-12-29T02:07:41.249Z,9.13
2017-12-29T02:10:09.629Z,9.14
2017-12-29T02:12:38.296Z,9.44
2017-12-29T02:15:06.654Z,9.22
2017-12-29T02:17:35.022Z,9.12
2017-12-29T02:20:03.781Z,9.15
2017-12-29T02:22:32.140Z,9.08
2017-12-29T02:25:00.538Z,9.15
2017-12-29T02:27:29.208Z,9.19
2017-12-29T02:29:57.558Z,9.19
2017-12-29T02:32:25.912Z,9.21
2017-12-29T02:34:54.748Z,9.21
2017-12-29T02:37:23.217Z,9.39
2017-12-29T02:39:51.569Z,9.37
2017-12-29T02:42:20.532Z,9.48
2017-12-29T02:44:48.894Z,9.64
2017-12-29T02:47:18.232Z,9.58
2017-12-29T02:49:47.012Z,9.72
2017-12-29T02:52:15.857Z,9.79
2017-12-29T02:54:45.446Z,9.50
2017-12-29T02:57:13.863Z,9.54
2017-12-29T02:59:42.227Z,9.58
2017-12-29T03:02:10.589Z,9.81
2017-12-29T03:04:38.956Z,9.61
2017-12-29T03:07:07.305Z,9.12
2017-12-29T03:09:36.041Z,9.17
2017-12-29T03:12:04.429Z,9.17
2017-12-29T03:14:32.791Z,9.04
2017-12-29T03:17:01.157Z,9.19
2017-12-29T03:19:30.287Z,8.79
2017-12-29T03:21:58.657Z,8.61
2017-12-29T03:24:27.472Z,8.63
2017-12-29T03:26:55.841Z,8.72
2017-12-29T03:29:24.200Z,8.74
2017-12-29T03:31:52.590Z,8.90
2017-12-29T03:34:21.085Z,8.29
2017-12-29T03:36:49.646Z,8.53
2017-12-29T03:39:18.042Z,8.76
2017-12-29T03:41:46.509Z,8.50
2017-12-29T03:44:14.876Z,8.62
2017-12-29T03:46:43.282Z,8.68
2017-12-29T03:49:12.081Z,9.01
2017-12-29T03:51:40.649Z,9.07
2017-12-29T03:54:09.277Z,8.62
2017-12-29T03:56:37.673Z,8.48
2017-12-29T03:59:06.106Z,8.66
2017-12-29T04:01:34.506Z,8.43
2017-12-29T04:04:03.288Z,8.08
2017-12-29T04:06:32.638Z,8.05
2017-12-29T04:09:00.988Z,7.97
2017-12-29T04:11:29.381Z,8.14
2017-12-29T04:13:57.791Z,7.81
2017-12-29T04:16:26.169Z,7.79
2017-12-29T04:18:55.310Z,7.67
2017-12-29T04:21:24.152Z,7.96
2017-12-29T04:23:52.506Z,7.87
2017-12-29T04:26:20.881Z,7.89
2017-12-29T04:28:49.234Z,7.92
2017-12-29T04:31:18.036Z,7.96
2017-12-29T04:33:46.608Z,7.96
2017-12-29T04:36:15.104Z,7.85
2017-12-29T04:38:43.533Z,7.97
2017-12-29T04:41:11.998Z,7.82
2017-12-29T04:43:40.504Z,8.00
2017-12-29T04:46:09.081Z,8.12
2017-12-29T04:48:38.974Z,8.08
2017-12-29T04:51:07.357Z,8.05
2017-12-29T04:53:35.706Z,7.93
2017-12-29T04:56:04.244Z,8.32
2017-12-29T04:58:32.700Z,8.35
2017-12-29T05:01:02.413Z,8.25
2017-12-29T05:03:30.933Z,8.12
2017-12-29T05:05:59.680Z,8.25
2017-12-29T05:08:28.084Z,8.21
2017-12-29T05:10:56.452Z,8.18
2017-12-29T05:13:25.018Z,8.19
2017-12-29T05:15:53.452Z,8.30
2017-12-29T05:18:22.535Z,8.36
2017-12-29T05:20:51.283Z,8.36
2017-12-29T05:23:19.679Z,8.12
2017-12-29T05:25:48.046Z,7.72
2017-12-29T05:28:16.532Z,7.70
2017-12-29T05:30:45.091Z,7.78
2017-12-29T05:33:13.467Z,7.79
2017-12-29T05:35:41.821Z,7.50
2017-12-29T05:38:10.245Z,7.59
2017-12-29T05:40:38.621Z,7.77
2017-12-29T05:43:07.062Z,7.65
2017-12-29T05:45:35.662Z,7.72
2017-12-29T05:48:04.085Z,7.59
2017-12-29T05:50:32.561Z,7.85
2017-12-29T05:53:00.904Z,7.97
2017-12-29T05:55:29.674Z,7.87
2017-12-29T05:57:58.047Z,7.71
2017-12-29T06:00:27.821Z,7.64
2017-12-29T06:02:56.198Z,7.74
2017-12-29T06:05:24.580Z,7.77
2017-12-29T06:07:52.934Z,7.83
2017-12-29T06:10:21.320Z,7.94
2017-12-29T06:12:50.455Z,8.07
2017-12-29T06:15:19.293Z,7.66
2017-12-29T06:17:47.660Z,7.82
2017-12-29T06:20:16.132Z,8.07
2017-12-29T06:22:44.500Z,8.14
2017-12-29T06:25:12.876Z,8.08
2017-12-29T06:27:42.995Z,8.36
2017-12-29T06:30:11.421Z,8.38
2017-12-29T06:32:39.792Z,8.37
2017-12-29T06:35:08.136Z,8.41
2017-12-29T06:37:36.557Z,7.87
2017-12-29T06:40:05.210Z,7.96
2017-12-29T06:42:34.858Z,8.39
2017-12-29T06:45:03.866Z,8.10
2017-12-29T06:47:32.531Z,8.33
2017-12-29T06:50:00.907Z,8.41
2017-12-29T06:52:29.252Z,8.11
2017-12-29T06:54:58.086Z,8.40
2017-12-29T06:57:26.429Z,8.12
2017-12-29T06:59:54.829Z,7.82
2017-12-29T07:02:23.197Z,8.19
2017-12-29T07:04:51.580Z,8.09
2017-12-29T07:07:19.932Z,8.18
2017-12-29T07:09:48.305Z,8.40
2017-12-29T07:12:17.981Z,8.19
2017-12-29T07:14:46.320Z,7.98
2017-12-29T07:17:14.817Z,8.11
2017-12-29T07:19:43.167Z,8.39
2017-12-29T07:22:11.637Z,8.35
2017-12-29T07:24:40.345Z,8.50
2017-12-29T07:27:08.698Z,8.53
2017-12-29T07:29:37.051Z,8.62
2017-12-29T07:32:05.904Z,8.28
2017-12-29T07:34:34.259Z,8.61
2017-12-29T07:37:02.607Z,8.72
2017-12-29T07:39:31.455Z,8.77
2017-12-29T07:41:59.824Z,8.84
2017-12-29T07:44:28.177Z,8.93
2017-12-29T07:46:56.549Z,8.84
2017-12-29T07:49:24.956Z,8.72
2017-12-29T07:51:53.344Z,8.47
2017-12-29T07:54:22.360Z,8.61
2017-12-29T07:56:51.164Z,8.76
2017-12-29T07:59:20.008Z,8.86
2017-12-29T08:01:48.391Z,9.02
2017-12-29T08:04:16.777Z,9.11
2017-12-29T08:06:45.252Z,9.11
2017-12-29T08:09:14.507Z,8.97
2017-12-29T08:11:43.333Z,8.90
2017-12-29T08:14:11.687Z,8.96
2017-12-29T08:16:40.110Z,9.05
2017-12-29T08:19:08.470Z,9.21
2017-12-29T08:21:36.870Z,9.13
2017-12-29T08:24:05.653Z,9.05
2017-12-29T08:26:34.008Z,9.13
2017-12-29T08:29:02.415Z,9.11
2017-12-29T08:31:30.798Z,9.27
2017-12-29T08:33:59.353Z,9.17
2017-12-29T08:36:27.719Z,9.35
2017-12-29T08:38:57.187Z,9.31
2017-12-29T08:41:26.045Z,9.42
2017-12-29T08:43:54.402Z,9.47
2017-12-29T08:46:22.806Z,9.61
2017-12-29T08:48:51.162Z,9.56
2017-12-29T08:51:20.115Z,9.43
2017-12-29T08:53:48.905Z,9.26
2017-12-29T08:56:17.654Z,9.28
2017-12-29T08:58:46.006Z,9.52
2017-12-29T09:01:14.396Z,9.74
2017-12-29T09:03:42.752Z,9.73
2017-12-29T09:06:11.093Z,9.38
2017-12-29T09:08:39.932Z,9.61
2017-12-29T09:11:08.273Z,9.67
2017-12-29T09:13:37.014Z,9.46
2017-12-29T09:16:05.372Z,9.49
2017-12-29T09:18:33.721Z,9.56
2017-12-29T09:21:02.068Z,9.36
2017-12-29T09:23:30.437Z,9.55
2017-12-29T09:25:58.933Z,9.83
2017-12-29T09:28:27.285Z,9.90
2017-12-29T09:30:55.657Z,9.84
2017-12-29T09:33:24.037Z,9.58
2017-12-29T09:35:52.384Z,9.89
2017-12-29T09:38:20.749Z,9.88
2017-12-29T09:40:49.477Z,9.92
2017-12-29T09:43:17.822Z,9.62
2017-12-29T09:45:46.313Z,9.82
2017-12-29T09:48:14.726Z,9.76
2017-12-29T09:50:43.563Z,9.82
2017-12-29T09:53:12.397Z,9.76
2017-12-29T09:55:40.747Z,9.72
2017-12-29T09:58:09.100Z,9.81
2017-12-29T10:00:37.860Z,9.97
2017-12-29T10:03:06.268Z,10.11
2017-12-29T10:05:35.110Z,10.04
2017-12-29T10:08:03.471Z,10.14
2017-12-29T10:10:31.873Z,10.30
2017-12-29T10:13:00.248Z,10.06
2017-12-29T10:15:28.636Z,10.13
2017-12-29T10:17:57.000Z,9.73
2017-12-29T10:20:25.364Z,10.24
2017-12-29T10:22:53.745Z,10.40
2017-12-29T10:25:22.105Z,10.33
2017-12-29T10:27:50.463Z,9.89
2017-12-29T10:30:19.228Z,10.00
2017-12-29T10:32:47.581Z,10.15
2017-12-29T10:35:15.923Z,10.46
2017-12-29T10:37:44.344Z,10.63
2017-12-29T10:40:12.695Z,10.75
2017-12-29T10:42:41.099Z,10.77
2017-12-29T10:45:09.463Z,10.87
2017-12-29T10:47:37.816Z,10.78
2017-12-29T10:50:06.244Z,10.74
2017-12-29T10:52:34.612Z,10.99
2017-12-29T10:55:02.962Z,11.08
2017-12-29T10:57:31.312Z,10.97
2017-12-29T11:00:00.085Z,10.73
2017-12-29T11:02:28.460Z,10.74
2017-12-29T11:04:56.814Z,10.85
2017-12-29T11:07:25.202Z,10.97
2017-12-29T11:09:53.547Z,11.22
2017-12-29T11:12:22.151Z,11.21
2017-12-29T11:14:50.521Z,11.46
2017-12-29T11:17:18.877Z,11.55
2017-12-29T11:19:47.228Z,11.63
2017-12-29T11:22:15.994Z,11.43
2017-12-29T11:24:44.517Z,11.39
2017-12-29T11:27:12.941Z,11.58
2017-12-29T11:29:41.397Z,11.43
2017-12-29T11:32:09.745Z,11.41
2017-12-29T11:34:38.184Z,10.76
2017-12-29T11:37:06.557Z,11.09
2017-12-29T11:39:35.073Z,11.61
2017-12-29T11:42:03.420Z,11.53
2017-12-29T11:44:31.788Z,11.34
2017-12-29T11:47:00.140Z,11.33
2017-12-29T11:49:28.484Z,11.42
2017-12-29T11:51:56.938Z,11.35
2017-12-29T11:54:25.280Z,11.25
2017-12-29T11:56:53.662Z,11.22
2017-12-29T11:59:22.034Z,11.42
2017-12-29T12:01:50.385Z,11.56
2017-12-29T12:04:19.122Z,11.27
2017-12-29T12:06:47.585Z,11.35
2017-12-29T12:09:15.922Z,11.36
2017-12-29T12:11:44.260Z,11.28
2017-12-29T12:14:12.645Z,11.02
2017-12-29T12:16:41.021Z,11.03
2017-12-29T12:19:09.376Z,10.78
2017-12-29T12:21:37.916Z,10.44
2017-12-29T12:24:06.272Z,10.28
2017-12-29T12:26:34.644Z,10.21
2017-12-29T12:29:03.025Z,10.29
2017-12-29T12:31:31.377Z,9.98
2017-12-29T12:33:59.708Z,9.81
2017-12-29T12:36:28.082Z,9.93
2017-12-29T12:38:56.532Z,10.01
2017-12-29T12:41:24.886Z,9.88
2017-12-29T12:43:53.253Z,9.51
2017-12-29T12:46:22.080Z,9.94
2017-12-29T12:48:50.475Z,10.13
2017-12-29T12:51:18.841Z,9.93
2017-12-29T12:53:47.226Z,9.78
2017-12-29T12:56:15.576Z,9.99
2017-12-29T12:58:43.943Z,10.13
2017-12-29T13:01:12.292Z,9.52
2017-12-29T13:03:41.045Z,10.00
2017-12-29T13:06:09.485Z,10.11
2017-12-29T13:08:37.827Z,9.48
2017-12-29T13:11:06.171Z,9.65
2017-12-29T13:13:34.577Z,9.79
2017-12-29T13:16:02.944Z,9.91
2017-12-29T13:18:31.291Z,9.93
2017-12-29T13:20:59.647Z,10.11
2017-12-29T13:23:28.469Z,10.05
2017-12-29T13:25:56.925Z,9.98
2017-12-29T13:28:25.304Z,9.64
2017-12-29T13:30:53.666Z,9.94
2017-12-29T13:33:22.412Z,10.09
2017-12-29T13:35:50.788Z,9.95
2017-12-29T13:38:19.164Z,9.23
2017-12-29T13:40:47.519Z,9.17
2017-12-29T13:43:15.885Z,9.45
2017-12-29T13:45:44.285Z,9.38
2017-12-29T13:48:12.616Z,9.30
2017-12-29T13:50:41.013Z,9.19
2017-12-29T13:53:09.767Z,9.36
2017-12-29T13:55:38.119Z,9.44
2017-12-29T13:58:06.491Z,9.45
2017-12-29T14:00:34.898Z,9.64
2017-12-29T14:03:03.260Z,9.71
2017-12-29T14:05:31.615Z,9.70
2017-12-29T14:07:59.973Z,9.68
2017-12-29T14:10:28.710Z,9.57
2017-12-29T14:12:57.098Z,9.41
2017-12-29T14:15:25.439Z,9.66
2017-12-29T14:17:53.776Z,9.41
2017-12-29T14:20:22.632Z,9.64
2017-12-29T14:22:50.985Z,9.41
2017-12-29T14:25:19.332Z,9.41
2017-12-29T14:27:48.089Z,9.38
2017-12-29T14:30:16.433Z,9.51
2017-12-29T14:32:44.788Z,9.21
2017-12-29T14:35:13.178Z,9.19
2017-12-29T14:37:41.510Z,9.03
2017-12-29T14:40:09.857Z,9.34
2017-12-29T14:42:38.236Z,9.31
2017-12-29T14:45:06.579Z,9.38
2017-12-29T14:47:34.914Z,9.43
2017-12-29T14:50:03.276Z,9.26
2017-12-29T14:52:31.653Z,9.19
2017-12-29T14:55:00.007Z,9.20
2017-12-29T14:57:28.381Z,9.16
2017-12-29T14:59:56.724Z,9.15
2017-12-29T15:02:25.596Z,9.03
2017-12-29T15:04:53.972Z,8.98
2017-12-29T15:07:22.492Z,8.71
2017-12-29T15:09:51.278Z,8.69
2017-12-29T15:12:20.031Z,8.58
2017-12-29T15:14:48.392Z,8.36
2017-12-29T15:17:16.735Z,8.34
2017-12-29T15:19:45.165Z,8.46
2017-12-29T15:22:13.508Z,8.33
2017-12-29T15:24:41.899Z,8.31
2017-12-29T15:27:10.268Z,8.22
2017-12-29T15:29:38.604Z,8.36
2017-12-29T15:32:06.984Z,8.25
2017-12-29T15:34:35.808Z,7.93
2017-12-29T15:37:04.204Z,8.08
2017-12-29T15:39:32.549Z,8.00
2017-12-29T15:42:00.916Z,8.08
2017-12-29T15:44:29.717Z,7.92
2017-12-29T15:46:58.057Z,7.92
2017-12-29T15:49:26.512Z,7.77
2017-12-29T15:51:54.907Z,7.90
2017-12-29T15:54:23.247Z,7.56
2017-12-29T15:56:51.615Z,7.76
2017-12-29T15:59:19.960Z,7.80
2017-12-29T16:01:50.899Z,7.78
2017-12-29T16:04:19.259Z,7.62
2017-12-29T16:06:47.731Z,7.61
2017-12-29T16:09:16.104Z,7.60
2017-12-29T16:11:44.465Z,7.59
2017-12-29T16:14:12.844Z,7.39
2017-12-29T16:16:41.214Z,7.37
2017-12-29T16:19:09.556Z,7.48
2017-12-29T16:21:38.592Z,7.37
2017-12-29T16:24:06.955Z,7.05
2017-12-29T16:26:35.308Z,7.01
2017-12-29T16:29:04.060Z,6.86
2017-12-29T16:31:32.440Z,7.10
2017-12-29T16:34:00.788Z,7.00
2017-12-29T16:36:30.414Z,7.05
2017-12-29T16:38:58.879Z,7.16
2017-12-29T16:41:27.282Z,6.66
2017-12-29T16:43:55.623Z,6.65
2017-12-29T16:46:24.066Z,6.83
2017-12-29T16:48:52.422Z,7.04
2017-12-29T16:51:20.883Z,6.86
2017-12-29T16:53:49.251Z,6.64
2017-12-29T16:56:17.600Z,6.68
2017-12-29T16:58:46.345Z,6.73
2017-12-29T17:01:14.720Z,6.79
2017-12-29T17:03:43.069Z,6.58
2017-12-29T17:06:11.473Z,6.70
2017-12-29T17:08:39.884Z,6.65
2017-12-29T17:11:08.291Z,6.61
2017-12-29T17:13:37.118Z,6.33
2017-12-29T17:16:05.492Z,6.50
2017-12-29T17:18:33.841Z,6.55
2017-12-29T17:21:02.259Z,6.56
2017-12-29T17:23:30.628Z,6.08
2017-12-29T17:25:58.990Z,5.98
2017-12-29T17:28:27.376Z,5.94
2017-12-29T17:30:55.775Z,6.16
2017-12-29T17:33:24.112Z,6.27
2017-12-29T17:35:52.537Z,6.16
2017-12-29T17:38:20.891Z,6.31
2017-12-29T17:40:49.319Z,6.45
2017-12-29T17:43:17.663Z,6.37
2017-12-29T17:45:46.095Z,6.38
2017-12-29T17:48:14.537Z,6.37
2017-12-29T17:50:42.880Z,6.22
2017-12-29T17:53:11.287Z,6.34
2017-12-29T17:55:39.633Z,6.26
2017-12-29T17:58:07.983Z,6.25
2017-12-29T18:00:36.940Z,6.21
2017-12-29T18:03:05.292Z,6.19
2017-12-29T18:05:33.635Z,5.85
2017-12-29T18:08:02.483Z,6.02
2017-12-29T18:10:30.838Z,5.89
2017-12-29T18:12:59.244Z,6.03
2017-12-29T18:15:27.718Z,5.95
2017-12-29T18:17:56.109Z,5.85
2017-12-29T18:20:24.460Z,5.63
2017-12-29T18:22:52.832Z,5.61
2017-12-29T18:25:21.232Z,5.49
2017-12-29T18:27:49.611Z,6.15
2017-12-29T18:30:17.972Z,5.93
2017-12-29T18:32:46.408Z,5.79
2017-12-29T18:35:14.759Z,5.32
2017-12-29T18:37:43.228Z,5.75
2017-12-29T18:40:11.592Z,5.60
2017-12-29T18:42:39.944Z,5.75
2017-12-29T18:45:08.326Z,5.56
2017-12-29T18:47:36.748Z,5.53
2017-12-29T18:50:05.089Z,5.44
2017-12-29T18:52:33.464Z,5.87
2017-12-29T18:55:01.877Z,5.83
2017-12-29T18:57:30.265Z,5.60
2017-12-29T18:59:58.676Z,5.44
2017-12-29T19:02:27.140Z,5.64
2017-12-29T19:04:55.483Z,5.60
2017-12-29T19:07:23.843Z,5.51
2017-12-29T19:09:52.180Z,5.41
2017-12-29T19:12:20.553Z,5.58
2017-12-29T19:14:49.013Z,5.73
2017-12-29T19:17:17.356Z,5.28
2017-12-29T19:19:45.697Z,5.63
2017-12-29T19:22:14.164Z,5.60
2017-12-29T19:24:42.522Z,5.54
2017-12-29T19:27:10.874Z,5.79
2017-12-29T19:29:39.257Z,5.89
2017-12-29T19:32:07.599Z,5.52
2017-12-29T19:34:36.350Z,5.46
2017-12-29T19:37:04.712Z,5.80
2017-12-29T19:39:33.115Z,5.75
2017-12-29T19:42:01.468Z,5.43
2017-12-29T19:44:29.965Z,5.58
2017-12-29T19:46:58.316Z,5.42
2017-12-29T19:49:26.669Z,5.50
2017-12-29T19:51:55.420Z,5.72
2017-12-29T19:54:23.782Z,5.38
2017-12-29T19:56:52.127Z,5.56
2017-12-29T19:59:20.537Z,5.51
2017-12-29T20:01:48.902Z,5.68
2017-12-29T20:04:17.283Z,5.54
2017-12-29T20:06:45.662Z,5.54
2017-12-29T20:09:14.100Z,5.48
2017-12-29T20:11:42.847Z,5.22
2017-12-29T20:14:11.209Z,5.41
2017-12-29T20:16:39.560Z,5.02
2017-12-29T20:19:07.913Z,5.01
2017-12-29T20:21:36.284Z,5.08
2017-12-29T20:24:04.652Z,5.17
2017-12-29T20:26:33.013Z,5.25
2017-12-29T20:29:01.476Z,5.30
2017-12-29T20:31:29.888Z,5.39
2017-12-29T20:33:58.236Z,4.96
2017-12-29T20:36:26.603Z,5.10
2017-12-29T20:38:55.040Z,5.22
2017-12-29T20:41:23.392Z,5.23
2017-12-29T20:43:51.762Z,5.44
2017-12-29T20:46:20.132Z,5.30
2017-12-29T20:48:48.488Z,5.27
2017-12-29T20:51:17.256Z,5.25
2017-12-29T20:53:45.699Z,5.00
2017-12-29T20:56:14.069Z,5.16
2017-12-29T20:58:42.432Z,5.19
2017-12-29T21:01:10.783Z,5.03
2017-12-29T21:03:39.628Z,5.08
2017-12-29T21:06:08.016Z,4.75
2017-12-29T21:08:36.387Z,4.60
2017-12-29T21:11:04.739Z,4.59
2017-12-29T21:13:33.112Z,4.09
2017-12-29T21:16:01.524Z,4.18
2017-12-29T21:18:29.986Z,4.35
2017-12-29T21:20:58.544Z,4.76
2017-12-29T21:23:26.911Z,4.51
2017-12-29T21:25:55.299Z,4.44
2017-12-29T21:28:23.688Z,4.43
2017-12-29T21:30:52.044Z,4.38
2017-12-29T21:33:20.798Z,4.25
2017-12-29T21:35:49.197Z,4.41
2017-12-29T21:38:17.549Z,4.42
2017-12-29T21:40:45.901Z,4.24
2017-12-29T21:43:14.270Z,4.11
2017-12-29T21:45:42.614Z,4.12
2017-12-29T21:48:11.344Z,4.28
2017-12-29T21:50:39.755Z,4.36
2017-12-29T21:53:08.123Z,3.92
2017-12-29T21:55:36.483Z,4.15
2017-12-29T21:58:04.880Z,4.19
2017-12-29T22:00:33.219Z,4.53
2017-12-29T22:03:01.592Z,4.55
2017-12-29T22:05:30.202Z,4.41
2017-12-29T22:07:58.568Z,4.57
2017-12-29T22:10:26.986Z,4.48
2017-12-29T22:12:55.374Z,4.50
2017-12-29T22:15:23.811Z,4.37
2017-12-29T22:17:52.160Z,4.24
2017-12-29T22:20:21.128Z,4.32
2017-12-29T22:22:49.500Z,4.42
2017-12-29T22:25:17.844Z,4.46
2017-12-29T22:27:46.212Z,4.47
2017-12-29T22:30:14.727Z,4.13
2017-12-29T22:32:43.072Z,3.85
2017-12-29T22:35:11.456Z,4.08
2017-12-29T22:37:39.871Z,3.96
2017-12-29T22:40:08.248Z,4.18
2017-12-29T22:42:36.629Z,4.34
2017-12-29T22:45:04.993Z,4.54
2017-12-29T22:47:33.333Z,4.28
2017-12-29T22:50:02.085Z,4.16
2017-12-29T22:52:30.520Z,4.25
2017-12-29T22:54:58.868Z,3.97
2017-12-29T22:57:27.716Z,4.05
2017-12-29T22:59:56.087Z,4.19
2017-12-29T23:02:24.616Z,4.13
2017-12-29T23:04:53.381Z,4.12
2017-12-29T23:07:21.738Z,3.98
2017-12-29T23:09:50.193Z,4.06
2017-12-29T23:12:18.677Z,4.20
2017-12-29T23:14:47.185Z,3.88
2017-12-29T23:17:15.560Z,4.20
2017-12-29T23:19:44.229Z,4.10
2017-12-29T23:22:12.623Z,3.85
2017-12-29T23:24:41.004Z,3.83
2017-12-29T23:27:09.422Z,4.18
2017-12-29T23:29:38.172Z,4.17
2017-12-29T23:32:06.528Z,4.15
2017-12-29T23:34:34.913Z,4.12
2017-12-29T23:37:03.259Z,4.37
2017-12-29T23:39:31.680Z,4.32
2017-12-29T23:42:00.057Z,4.20
2017-12-29T23:44:28.458Z,4.47
2017-12-29T23:46:56.809Z,4.25
2017-12-29T23:49:25.307Z,4.01
2017-12-29T23:51:53.656Z,3.66
2017-12-29T23:54:22.002Z,3.63
2017-12-29T23:56:50.771Z,3.87
2017-12-29T23:59:19.328Z,4.19
